createdAt,value
2022-09-07T00:00:51.509Z,7.60
2022-09-07T00:01:53.224Z,7.97
2022-09-07T00:02:54.971Z,7.72
2022-09-07T00:03:57.747Z,8.18
2022-09-07T00:04:59.517Z,7.38
2022-09-07T00:06:07.735Z,8.02
2022-09-07T00:07:09.452Z,7.88
2022-09-07T00:08:11.921Z,7.75
2022-09-07T00:09:13.686Z,7.60
2022-09-07T00:10:15.714Z,7.93
2022-09-07T00:11:19.560Z,8.07
2022-09-07T00:12:21.265Z,7.80
2022-09-07T00:13:24.682Z,8.10
2022-09-07T00:14:26.435Z,7.85
2022-09-07T00:15:28.194Z,8.32
2022-09-07T00:16:31.175Z,8.18
2022-09-07T00:17:32.936Z,8.20
2022-09-07T00:18:35.079Z,8.52
2022-09-07T00:19:36.806Z,8.20
2022-09-07T00:20:38.523Z,8.25
2022-09-07T00:21:40.290Z,8.63
2022-09-07T00:22:42.127Z,8.80
2022-09-07T00:23:44.490Z,8.77
2022-09-07T00:24:46.177Z,8.55
2022-09-07T00:25:51.180Z,8.60
2022-09-07T00:26:56.630Z,8.57
2022-09-07T00:27:58.344Z,8.63
2022-09-07T00:29:02.175Z,9.10
2022-09-07T00:30:05.250Z,8.52
2022-09-07T00:31:12.358Z,8.60
2022-09-07T00:32:14.126Z,8.13
2022-09-07T00:33:15.881Z,9.20
2022-09-07T00:34:17.584Z,8.88
2022-09-07T00:35:19.361Z,8.63
2022-09-07T00:36:22.725Z,8.60
2022-09-07T00:37:24.525Z,8.77
2022-09-07T00:38:26.306Z,9.63
2022-09-07T00:39:28.082Z,8.93
2022-09-07T00:40:29.839Z,9.30
2022-09-07T00:41:31.821Z,8.75
2022-09-07T00:42:33.537Z,8.55
2022-09-07T00:43:38.259Z,8.53
2022-09-07T00:44:42.749Z,7.97
2022-09-07T00:45:44.436Z,8.07
2022-09-07T00:46:47.021Z,8.25
2022-09-07T00:48:15.102Z,7.85
2022-09-07T00:49:21.661Z,8.55
2022-09-07T00:50:25.514Z,8.30
2022-09-07T00:51:36.969Z,7.82
2022-09-07T00:52:39.770Z,8.32
2022-09-07T00:53:55.393Z,7.35
2022-09-07T00:55:01.920Z,7.90
2022-09-07T00:56:05.224Z,8.00
2022-09-07T00:57:07.477Z,7.72
2022-09-07T00:58:10.316Z,7.30
2022-09-07T00:59:16.598Z,8.00
2022-09-07T01:00:18.671Z,8.30
2022-09-07T01:01:21.718Z,8.30
2022-09-07T01:02:24.788Z,7.38
2022-09-07T01:03:31.757Z,7.80
2022-09-07T01:04:34.111Z,8.25
2022-09-07T01:05:43.905Z,8.23
2022-09-07T01:06:46.042Z,7.80
2022-09-07T01:07:47.953Z,7.43
2022-09-07T01:08:50.971Z,7.30
2022-09-07T01:09:52.991Z,7.35
2022-09-07T01:10:55.902Z,7.35
2022-09-07T01:12:02.072Z,7.63
2022-09-07T01:13:03.876Z,7.40
2022-09-07T01:14:08.195Z,6.90
2022-09-07T01:15:10.451Z,7.55
2022-09-07T01:16:31.895Z,7.23
2022-09-07T01:17:54.041Z,7.10
2022-09-07T01:19:05.596Z,7.15
2022-09-07T01:20:31.807Z,7.55
2022-09-07T01:21:43.723Z,7.10
2022-09-07T01:23:22.301Z,7.78
2022-09-07T01:24:42.359Z,7.38
2022-09-07T01:26:14.502Z,8.25
2022-09-07T01:27:44.097Z,7.35
2022-09-07T01:28:49.707Z,7.25
2022-09-07T01:30:09.632Z,7.13
2022-09-07T01:31:17.314Z,7.45
2022-09-07T01:32:34.673Z,8.00
2022-09-07T01:33:39.220Z,7.13
2022-09-07T01:34:43.435Z,7.50
2022-09-07T01:36:05.767Z,7.28
2022-09-07T01:37:37.177Z,7.35
2022-09-07T01:39:02.528Z,6.97
2022-09-07T01:40:15.292Z,7.03
2022-09-07T01:41:21.152Z,7.20
2022-09-07T01:42:31.356Z,7.17
2022-09-07T01:43:49.731Z,7.03
2022-09-07T01:44:58.357Z,6.85
2022-09-07T01:46:03.426Z,7.05
2022-09-07T01:47:27.113Z,7.78
2022-09-07T01:48:30.222Z,6.95
2022-09-07T01:49:58.420Z,7.35
2022-09-07T01:51:03.625Z,7.35
2022-09-07T01:52:13.779Z,6.95
2022-09-07T01:53:37.386Z,6.85
2022-09-07T01:54:47.322Z,6.90
2022-09-07T01:56:09.957Z,7.03
2022-09-07T01:57:27.002Z,7.57
2022-09-07T01:58:35.042Z,7.07
2022-09-07T01:59:44.078Z,7.00
2022-09-07T02:00:59.540Z,6.70
2022-09-07T02:02:04.810Z,7.40
2022-09-07T02:03:15.371Z,6.97
2022-09-07T02:04:21.489Z,7.05
2022-09-07T02:05:51.896Z,6.65
2022-09-07T02:06:59.493Z,6.47
2022-09-07T02:08:10.076Z,7.07
2022-09-07T02:09:20.872Z,7.05
2022-09-07T02:10:26.391Z,7.38
2022-09-07T02:11:38.166Z,6.88
2022-09-07T02:12:48.548Z,7.05
2022-09-07T02:14:15.698Z,6.75
2022-09-07T02:15:27.131Z,7.28
2022-09-07T02:16:30.930Z,6.90
2022-09-07T02:17:55.709Z,6.90
2022-09-07T02:19:05.280Z,7.20
2022-09-07T02:20:12.059Z,6.75
2022-09-07T02:21:17.754Z,6.40
2022-09-07T02:22:26.651Z,7.53
2022-09-07T02:23:37.351Z,6.80
2022-09-07T02:24:47.191Z,6.80
2022-09-07T02:25:55.205Z,6.57
2022-09-07T02:26:58.660Z,7.30
2022-09-07T02:28:08.565Z,6.57
2022-09-07T02:29:10.293Z,6.63
2022-09-07T02:30:12.981Z,7.80
2022-09-07T02:31:15.848Z,7.20
2022-09-07T02:32:18.342Z,6.90
2022-09-07T02:33:20.180Z,7.00
2022-09-07T02:34:22.351Z,6.63
2022-09-07T02:35:24.160Z,6.72
2022-09-07T02:36:32.238Z,6.78
2022-09-07T02:37:35.094Z,6.18
2022-09-07T02:38:36.911Z,7.35
2022-09-07T02:39:38.854Z,6.60
2022-09-07T02:40:40.612Z,7.17
2022-09-07T02:41:44.037Z,6.30
2022-09-07T02:42:47.678Z,6.60
2022-09-07T02:43:49.430Z,6.65
2022-09-07T02:44:51.266Z,6.72
2022-09-07T02:45:52.957Z,6.88
2022-09-07T02:47:09.760Z,6.60
2022-09-07T02:48:17.567Z,6.35
2022-09-07T02:50:04.371Z,6.50
2022-09-07T02:51:33.623Z,6.20
2022-09-07T02:52:57.037Z,6.80
2022-09-07T02:54:25.458Z,7.25
2022-09-07T02:55:45.759Z,7.13
2022-09-07T02:56:50.195Z,7.10
2022-09-07T02:58:30.654Z,7.05
2022-09-07T02:59:53.981Z,6.63
2022-09-07T03:01:17.672Z,6.57
2022-09-07T03:02:29.081Z,6.70
2022-09-07T03:03:45.658Z,6.35
2022-09-07T03:05:20.463Z,6.60
2022-09-07T03:06:46.071Z,6.40
2022-09-07T03:08:00.930Z,6.50
2022-09-07T03:09:07.798Z,6.85
2022-09-07T03:10:10.428Z,6.60
2022-09-07T03:11:13.080Z,6.80
2022-09-07T03:12:15.233Z,6.65
2022-09-07T03:13:28.555Z,6.95
2022-09-07T03:14:33.347Z,6.38
2022-09-07T03:15:35.236Z,6.32
2022-09-07T03:16:36.961Z,6.32
2022-09-07T03:17:39.580Z,6.20
2022-09-07T03:18:43.534Z,6.20
2022-09-07T03:19:45.242Z,6.65
2022-09-07T03:20:47.123Z,6.40
2022-09-07T03:21:48.861Z,6.50
2022-09-07T03:22:52.101Z,6.38
2022-09-07T03:23:53.819Z,6.63
2022-09-07T03:24:55.542Z,6.10
2022-09-07T03:25:57.287Z,7.00
2022-09-07T03:26:59.341Z,6.70
2022-09-07T03:28:01.053Z,6.07
2022-09-07T03:29:02.771Z,6.90
2022-09-07T03:30:09.411Z,6.40
2022-09-07T03:31:11.213Z,6.55
2022-09-07T03:32:12.925Z,6.47
2022-09-07T03:33:15.980Z,6.88
2022-09-07T03:34:17.795Z,6.53
2022-09-07T03:35:19.537Z,7.10
2022-09-07T03:36:21.235Z,6.65
2022-09-07T03:37:22.936Z,6.15
2022-09-07T03:38:24.726Z,7.17
2022-09-07T03:39:27.057Z,6.22
2022-09-07T03:40:28.897Z,6.57
2022-09-07T03:41:30.644Z,6.25
2022-09-07T03:42:32.340Z,6.05
2022-09-07T03:43:35.084Z,6.00
2022-09-07T03:44:36.838Z,6.03
2022-09-07T03:45:38.602Z,6.30
2022-09-07T03:46:40.419Z,6.28
2022-09-07T03:47:42.236Z,6.38
2022-09-07T03:48:43.983Z,6.40
2022-09-07T03:49:45.707Z,6.35
2022-09-07T03:50:59.209Z,6.40
2022-09-07T03:52:01.129Z,6.30
2022-09-07T03:53:02.829Z,5.82
2022-09-07T03:54:04.750Z,6.53
2022-09-07T03:55:06.836Z,6.60
2022-09-07T03:56:13.861Z,6.55
2022-09-07T03:57:15.731Z,6.60
2022-09-07T03:58:17.427Z,6.10
2022-09-07T03:59:19.188Z,6.43
2022-09-07T04:00:20.890Z,6.35
2022-09-07T04:01:25.407Z,5.82
2022-09-07T04:02:27.211Z,6.15
2022-09-07T04:03:28.935Z,6.22
2022-09-07T04:04:30.910Z,6.25
2022-09-07T04:05:32.729Z,7.00
2022-09-07T04:06:34.507Z,7.22
2022-09-07T04:07:36.577Z,6.13
2022-09-07T04:08:40.181Z,6.65
2022-09-07T04:09:42.322Z,6.77
2022-09-07T04:10:44.175Z,6.28
2022-09-07T04:11:45.903Z,6.10
2022-09-07T04:12:47.605Z,6.18
2022-09-07T04:13:49.364Z,6.15
2022-09-07T04:14:51.048Z,6.65
2022-09-07T04:15:54.027Z,6.50
2022-09-07T04:16:56.026Z,6.22
2022-09-07T04:17:58.015Z,6.93
2022-09-07T04:19:00.138Z,6.50
2022-09-07T04:20:02.119Z,6.50
2022-09-07T04:21:04.122Z,6.55
2022-09-07T04:22:05.835Z,6.57
2022-09-07T04:23:07.739Z,6.72
2022-09-07T04:24:09.434Z,7.07
2022-09-07T04:25:11.133Z,6.57
2022-09-07T04:26:33.242Z,6.80
2022-09-07T04:27:34.936Z,6.30
2022-09-07T04:28:36.654Z,6.50
2022-09-07T04:29:38.405Z,7.03
2022-09-07T04:30:40.148Z,6.43
2022-09-07T04:31:41.925Z,6.15
2022-09-07T04:32:46.098Z,6.38
2022-09-07T04:33:50.136Z,7.55
2022-09-07T04:34:54.358Z,6.30
2022-09-07T04:35:56.102Z,6.63
2022-09-07T04:36:57.855Z,6.63
2022-09-07T04:37:59.537Z,6.55
2022-09-07T04:39:04.230Z,6.88
2022-09-07T04:40:06.231Z,6.47
2022-09-07T04:41:12.374Z,5.93
2022-09-07T04:42:14.117Z,6.88
2022-09-07T04:43:15.916Z,6.70
2022-09-07T04:44:17.668Z,6.80
2022-09-07T04:45:19.440Z,6.40
2022-09-07T04:46:22.564Z,6.57
2022-09-07T04:47:25.113Z,7.20
2022-09-07T04:48:26.840Z,6.93
2022-09-07T04:49:28.661Z,6.25
2022-09-07T04:50:30.509Z,6.95
2022-09-07T04:51:32.987Z,6.73
2022-09-07T04:52:34.694Z,6.80
2022-09-07T04:53:38.087Z,6.10
2022-09-07T04:54:39.805Z,6.90
2022-09-07T04:55:41.517Z,7.07
2022-09-07T04:56:43.260Z,6.95
2022-09-07T04:57:44.962Z,6.97
2022-09-07T04:58:47.854Z,6.57
2022-09-07T04:59:49.621Z,6.55
2022-09-07T05:00:51.589Z,6.60
2022-09-07T05:01:53.363Z,6.40
2022-09-07T05:02:55.191Z,7.00
2022-09-07T05:03:58.996Z,7.07
2022-09-07T05:05:02.869Z,6.55
2022-09-07T05:06:06.464Z,7.07
2022-09-07T05:07:08.184Z,6.68
2022-09-07T05:08:09.880Z,6.63
2022-09-07T05:09:11.616Z,6.53
2022-09-07T05:10:13.296Z,7.03
2022-09-07T05:11:16.079Z,6.65
2022-09-07T05:12:17.803Z,6.83
2022-09-07T05:13:19.652Z,6.65
2022-09-07T05:14:21.371Z,6.50
2022-09-07T05:15:23.067Z,6.50
2022-09-07T05:16:25.790Z,6.70
2022-09-07T05:17:28.272Z,7.18
2022-09-07T05:18:30.060Z,7.00
2022-09-07T05:19:31.949Z,6.88
2022-09-07T05:20:33.632Z,6.30
2022-09-07T05:21:35.397Z,6.32
2022-09-07T05:22:41.078Z,6.33
2022-09-07T05:23:43.437Z,6.25
2022-09-07T05:24:46.306Z,6.47
2022-09-07T05:25:48.001Z,6.15
2022-09-07T05:26:49.761Z,7.30
2022-09-07T05:27:51.513Z,6.38
2022-09-07T05:31:37.247Z,6.68
2022-09-07T05:32:38.936Z,6.65
2022-09-07T05:35:02.308Z,6.32
2022-09-07T05:36:06.194Z,6.85
2022-09-07T05:37:08.006Z,7.30
2022-09-07T05:38:09.732Z,6.68
2022-09-07T05:39:11.473Z,6.85
2022-09-07T05:40:15.343Z,6.45
2022-09-07T05:41:19.759Z,6.50
2022-09-07T05:42:22.636Z,6.65
2022-09-07T05:43:24.400Z,6.60
2022-09-07T05:45:44.091Z,6.90
2022-09-07T05:46:45.854Z,7.22
2022-09-07T05:47:50.278Z,7.43
2022-09-07T05:48:52.135Z,6.50
2022-09-07T05:49:56.994Z,6.25
2022-09-07T05:50:59.163Z,6.88
2022-09-07T05:52:01.005Z,6.68
2022-09-07T05:53:03.306Z,6.80
2022-09-07T05:54:05.210Z,6.80
2022-09-07T05:55:28.218Z,6.97
2022-09-07T05:56:28.921Z,6.25
2022-09-07T05:57:30.678Z,6.75
2022-09-07T05:58:33.417Z,6.75
2022-09-07T05:59:35.316Z,6.65
2022-09-07T06:00:37.034Z,6.88
2022-09-07T06:01:38.758Z,7.00
2022-09-07T06:02:40.898Z,7.28
2022-09-07T06:03:43.142Z,6.65
2022-09-07T06:04:44.847Z,6.60
2022-09-07T06:05:46.671Z,6.57
2022-09-07T06:07:17.582Z,6.85
2022-09-07T06:08:10.278Z,7.15
2022-09-07T06:09:12.703Z,6.70
2022-09-07T06:11:36.790Z,6.53
2022-09-07T06:12:38.622Z,6.80
2022-09-07T06:13:41.921Z,6.70
2022-09-07T06:14:43.691Z,6.80
2022-09-07T06:15:45.420Z,6.70
2022-09-07T06:16:47.248Z,7.17
2022-09-07T06:17:49.013Z,6.88
2022-09-07T06:18:51.059Z,7.20
2022-09-07T06:19:52.771Z,6.80
2022-09-07T06:20:54.464Z,7.45
2022-09-07T06:21:56.146Z,6.40
2022-09-07T06:22:59.195Z,7.03
2022-09-07T06:24:00.901Z,7.10
2022-09-07T06:25:02.880Z,7.93
2022-09-07T06:26:05.194Z,7.05
2022-09-07T06:27:06.883Z,7.10
2022-09-07T06:28:08.589Z,7.05
2022-09-07T06:29:10.486Z,6.88
2022-09-07T06:30:12.430Z,6.88
2022-09-07T06:31:16.458Z,7.32
2022-09-07T06:33:41.600Z,6.70
2022-09-07T06:34:43.319Z,6.75
2022-09-07T06:35:58.694Z,7.05
2022-09-07T06:37:00.372Z,6.93
2022-09-07T06:38:02.055Z,7.17
2022-09-07T06:39:04.027Z,7.35
2022-09-07T06:40:06.352Z,6.97
2022-09-07T06:42:34.276Z,6.60
2022-09-07T06:43:36.139Z,6.88
2022-09-07T06:44:37.917Z,7.03
2022-09-07T06:45:39.680Z,6.88
2022-09-07T06:48:03.369Z,6.93
2022-09-07T06:49:05.135Z,6.77
2022-09-07T06:50:07.426Z,6.90
2022-09-07T06:51:16.594Z,7.60
2022-09-07T06:52:18.398Z,6.88
2022-09-07T06:53:35.473Z,7.10
2022-09-07T06:55:59.738Z,6.63
2022-09-07T06:57:08.005Z,7.55
2022-09-07T06:58:09.700Z,7.30
2022-09-07T06:59:11.412Z,7.05
2022-09-07T07:00:13.682Z,7.27
2022-09-07T07:01:17.666Z,7.40
2022-09-07T07:02:19.548Z,7.28
2022-09-07T07:03:22.065Z,6.88
2022-09-07T07:04:23.822Z,7.07
2022-09-07T07:05:25.532Z,7.05
2022-09-07T07:06:38.399Z,7.45
2022-09-07T07:07:40.128Z,6.80
2022-09-07T07:08:42.440Z,6.55
2022-09-07T07:09:44.134Z,6.60
2022-09-07T07:10:45.895Z,6.80
2022-09-07T07:11:48.213Z,6.40
2022-09-07T07:12:49.954Z,6.38
2022-09-07T07:13:51.703Z,6.55
2022-09-07T07:14:53.425Z,6.65
2022-09-07T07:16:02.446Z,6.30
2022-09-07T07:17:04.341Z,6.93
2022-09-07T07:18:20.313Z,6.50
2022-09-07T07:19:22.825Z,6.10
2022-09-07T07:20:24.566Z,6.60
2022-09-07T07:21:28.937Z,6.53
2022-09-07T07:22:46.420Z,6.10
2022-09-07T07:23:53.743Z,6.50
2022-09-07T07:24:56.157Z,6.20
2022-09-07T07:26:12.436Z,5.80
2022-09-07T07:27:14.124Z,6.32
2022-09-07T07:29:37.582Z,6.18
2022-09-07T07:30:39.408Z,6.07
2022-09-07T07:31:41.126Z,6.35
2022-09-07T07:32:43.809Z,6.37
2022-09-07T07:33:48.136Z,6.50
2022-09-07T07:34:49.855Z,6.32
2022-09-07T07:35:51.571Z,6.40
2022-09-07T07:36:53.379Z,6.68
2022-09-07T07:40:39.785Z,5.93
2022-09-07T07:41:59.006Z,6.25
2022-09-07T07:43:03.325Z,6.07
2022-09-07T07:44:05.063Z,6.13
2022-09-07T07:46:30.384Z,5.75
2022-09-07T07:47:32.302Z,5.82
2022-09-07T07:48:35.865Z,6.10
2022-09-07T07:49:37.525Z,5.78
2022-09-07T07:50:39.356Z,6.10
2022-09-07T07:54:24.830Z,6.55
2022-09-07T07:56:48.152Z,5.55
2022-09-07T07:57:49.821Z,5.88
2022-09-07T07:58:52.483Z,5.95
2022-09-07T07:59:54.175Z,5.70
2022-09-07T08:01:00.436Z,5.75
2022-09-07T08:02:04.778Z,5.50
2022-09-07T08:03:07.086Z,6.25
2022-09-07T08:04:08.735Z,6.18
2022-09-07T08:05:10.496Z,5.63
2022-09-07T08:06:14.863Z,6.20
2022-09-07T08:07:17.472Z,5.85
2022-09-07T08:08:19.715Z,5.85
2022-09-07T08:09:21.400Z,5.93
2022-09-07T08:10:27.013Z,5.35
2022-09-07T08:11:30.328Z,5.78
2022-09-07T08:12:31.976Z,5.57
2022-09-07T08:13:37.761Z,5.38
2022-09-07T08:14:41.195Z,5.43
2022-09-07T08:15:46.523Z,5.65
2022-09-07T08:16:48.427Z,5.67
2022-09-07T08:17:50.407Z,5.30
2022-09-07T08:18:52.880Z,5.60
2022-09-07T08:19:55.800Z,5.05
2022-09-07T08:21:02.966Z,5.30
2022-09-07T08:22:04.928Z,5.43
2022-09-07T08:23:10.219Z,5.32
2022-09-07T08:24:11.888Z,4.93
2022-09-07T08:25:13.708Z,5.43
2022-09-07T08:26:16.043Z,4.88
2022-09-07T08:27:19.729Z,5.33
2022-09-07T08:28:25.322Z,5.35
2022-09-07T08:29:27.190Z,5.28
2022-09-07T08:30:29.417Z,5.50
2022-09-07T08:31:31.187Z,5.43
2022-09-07T08:32:32.852Z,5.43
2022-09-07T08:33:37.613Z,4.80
2022-09-07T08:34:39.272Z,5.38
2022-09-07T08:35:41.234Z,5.20
2022-09-07T08:36:43.959Z,5.00
2022-09-07T08:37:45.650Z,5.10
2022-09-07T08:38:48.116Z,4.85
2022-09-07T08:39:49.793Z,4.63
2022-09-07T08:40:52.450Z,5.53
2022-09-07T08:42:15.330Z,4.88
2022-09-07T08:43:38.707Z,4.72
2022-09-07T08:44:47.346Z,4.78
2022-09-07T08:45:54.851Z,4.90
2022-09-07T08:47:06.949Z,4.95
2022-09-07T08:48:11.945Z,4.80
2022-09-07T08:49:20.753Z,4.63
2022-09-07T08:50:45.942Z,4.50
2022-09-07T08:51:57.426Z,4.50
2022-09-07T08:53:04.802Z,4.85
2022-09-07T08:54:06.830Z,4.60
2022-09-07T08:55:14.748Z,4.63
2022-09-07T08:56:36.665Z,4.40
2022-09-07T08:57:45.347Z,4.38
2022-09-07T08:58:53.287Z,4.70
2022-09-07T09:00:07.958Z,4.57
2022-09-07T09:02:42.559Z,4.45
2022-09-07T09:05:36.123Z,3.90
2022-09-07T09:06:43.805Z,4.13
2022-09-07T09:07:57.367Z,3.97
2022-09-07T09:09:18.110Z,4.13
2022-09-07T09:10:34.037Z,4.32
2022-09-07T09:11:55.042Z,4.28
2022-09-07T09:13:09.618Z,4.10
2022-09-07T09:14:25.924Z,4.47
2022-09-07T09:15:51.752Z,4.18
2022-09-07T09:17:00.053Z,4.28
2022-09-07T09:18:13.871Z,4.22
2022-09-07T09:19:27.226Z,4.20
2022-09-07T09:20:54.567Z,4.30
2022-09-07T09:22:23.901Z,4.22
2022-09-07T09:23:30.917Z,4.32
2022-09-07T09:24:37.662Z,4.25
2022-09-07T09:25:45.723Z,4.20
2022-09-07T09:26:51.583Z,3.87
2022-09-07T09:27:53.998Z,4.22
2022-09-07T09:28:55.667Z,4.30
2022-09-07T09:29:57.326Z,4.00
2022-09-07T09:30:59.111Z,4.07
2022-09-07T09:32:31.402Z,3.95
2022-09-07T09:33:33.062Z,3.92
2022-09-07T09:34:35.245Z,4.50
2022-09-07T09:35:39.356Z,3.90
2022-09-07T09:36:49.982Z,3.70
2022-09-07T09:37:51.664Z,4.17
2022-09-07T09:38:53.363Z,4.18
2022-09-07T09:40:00.680Z,4.13
2022-09-07T09:41:12.872Z,4.18
2022-09-07T09:42:22.185Z,4.15
2022-09-07T09:43:39.417Z,3.92
2022-09-07T09:44:42.442Z,3.78
2022-09-07T09:47:33.108Z,4.18
2022-09-07T09:48:39.976Z,3.95
2022-09-07T09:49:41.733Z,4.10
2022-09-07T09:52:30.400Z,3.78
2022-09-07T09:53:43.419Z,4.00
2022-09-07T09:54:51.025Z,4.35
2022-09-07T09:55:53.558Z,4.28
2022-09-07T09:56:55.620Z,4.07
2022-09-07T10:01:30.950Z,3.85
2022-09-07T10:03:56.659Z,4.03
2022-09-07T10:05:00.000Z,3.70
2022-09-07T10:06:07.282Z,4.05
2022-09-07T10:07:21.985Z,4.00
2022-09-07T10:08:29.638Z,3.92
2022-09-07T10:09:38.892Z,3.72
2022-09-07T10:10:54.680Z,3.72
2022-09-07T10:12:07.830Z,3.75
2022-09-07T10:13:24.270Z,3.35
2022-09-07T10:14:32.041Z,3.90
2022-09-07T10:15:41.009Z,3.28
2022-09-07T10:16:44.353Z,3.55
2022-09-07T10:17:49.760Z,3.80
2022-09-07T10:18:55.436Z,3.80
2022-09-07T10:20:29.889Z,3.67
2022-09-07T10:21:32.456Z,3.67
2022-09-07T10:22:37.071Z,4.00
2022-09-07T10:23:38.853Z,3.47
2022-09-07T10:24:41.461Z,3.90
2022-09-07T10:25:47.445Z,3.93
2022-09-07T10:26:49.101Z,3.50
2022-09-07T10:28:01.447Z,3.60
2022-09-07T10:29:13.787Z,4.00
2022-09-07T10:30:16.903Z,3.63
2022-09-07T10:31:24.886Z,3.60
2022-09-07T10:32:40.859Z,3.67
2022-09-07T10:35:30.773Z,3.63
2022-09-07T10:36:44.551Z,3.55
2022-09-07T10:38:13.299Z,4.00
2022-09-07T10:39:18.593Z,3.53
2022-09-07T10:40:26.186Z,3.70
2022-09-07T10:41:41.431Z,3.63
2022-09-07T10:44:46.594Z,3.75
2022-09-07T10:48:15.468Z,3.55
2022-09-07T10:49:39.367Z,3.30
2022-09-07T10:51:10.004Z,3.50
2022-09-07T10:52:30.883Z,3.70
2022-09-07T10:53:42.310Z,3.30
2022-09-07T10:54:54.970Z,3.47
2022-09-07T10:56:21.698Z,3.55
2022-09-07T10:57:40.445Z,3.67
2022-09-07T10:59:01.867Z,3.53
2022-09-07T11:00:12.855Z,3.47
2022-09-07T11:01:18.879Z,3.50
2022-09-07T11:02:31.266Z,3.25
2022-09-07T11:03:51.803Z,3.30
2022-09-07T11:05:21.822Z,3.20
2022-09-07T11:06:36.525Z,3.47
2022-09-07T11:08:27.309Z,3.60
2022-09-07T11:09:35.032Z,3.50
2022-09-07T11:10:36.678Z,3.47
2022-09-07T11:13:08.170Z,3.33
2022-09-07T11:14:14.893Z,3.63
2022-09-07T11:15:20.633Z,3.30
2022-09-07T11:18:08.488Z,3.30
2022-09-07T11:19:35.837Z,3.30
2022-09-07T11:20:45.790Z,3.30
2022-09-07T11:22:07.361Z,3.00
2022-09-07T11:23:19.500Z,3.55
2022-09-07T11:24:27.280Z,3.67
2022-09-07T11:25:47.165Z,3.50
2022-09-07T11:26:51.810Z,3.70
2022-09-07T11:27:59.281Z,3.58
2022-09-07T11:29:39.980Z,3.45
2022-09-07T11:30:50.048Z,3.30
2022-09-07T11:31:57.273Z,3.30
2022-09-07T11:33:11.281Z,3.72
2022-09-07T11:34:37.871Z,3.67
2022-09-07T11:36:12.029Z,3.53
2022-09-07T11:37:23.203Z,3.30
2022-09-07T11:38:38.884Z,3.30
2022-09-07T11:40:01.411Z,3.40
2022-09-07T11:41:15.150Z,3.10
2022-09-07T11:42:43.979Z,3.60
2022-09-07T11:44:13.485Z,3.40
2022-09-07T11:45:22.009Z,3.50
2022-09-07T11:46:23.665Z,3.42
2022-09-07T11:47:28.363Z,3.33
2022-09-07T11:48:56.555Z,3.50
2022-09-07T11:49:59.614Z,3.55
2022-09-07T11:51:27.306Z,3.72
2022-09-07T11:52:38.215Z,3.60
2022-09-07T11:53:46.652Z,3.63
2022-09-07T11:55:02.513Z,3.97
2022-09-07T11:56:14.645Z,3.80
2022-09-07T11:57:35.034Z,3.65
2022-09-07T11:59:03.271Z,3.38
2022-09-07T12:00:12.279Z,3.58
2022-09-07T12:01:32.655Z,3.50
2022-09-07T12:03:11.928Z,3.55
2022-09-07T12:04:47.893Z,3.20
2022-09-07T12:06:21.946Z,3.45
2022-09-07T12:07:23.544Z,3.60
2022-09-07T12:08:55.963Z,4.00
2022-09-07T12:10:25.554Z,3.10
2022-09-07T12:11:51.870Z,3.72
2022-09-07T12:13:27.391Z,3.55
2022-09-07T12:14:55.328Z,3.22
2022-09-07T12:16:17.785Z,3.78
2022-09-07T12:17:31.038Z,3.78
2022-09-07T12:18:45.109Z,4.00
2022-09-07T12:20:02.922Z,3.50
2022-09-07T12:21:04.754Z,3.95
2022-09-07T12:22:20.238Z,3.38
2022-09-07T12:23:29.101Z,3.83
2022-09-07T12:24:47.093Z,3.55
2022-09-07T12:25:51.179Z,3.67
2022-09-07T12:26:54.054Z,3.70
2022-09-07T12:27:56.516Z,3.95
2022-09-07T12:28:58.153Z,3.75
2022-09-07T12:30:01.691Z,3.50
2022-09-07T12:31:06.707Z,3.80
2022-09-07T12:33:39.775Z,3.92
2022-09-07T12:34:55.336Z,3.87
2022-09-07T12:35:59.048Z,4.15
2022-09-07T12:37:02.685Z,4.30
2022-09-07T12:38:30.873Z,3.90
2022-09-07T12:39:33.318Z,3.85
2022-09-07T12:40:45.787Z,3.90
2022-09-07T12:43:15.733Z,4.05
2022-09-07T12:44:29.102Z,4.68
2022-09-07T12:45:31.052Z,4.13
2022-09-07T12:46:34.735Z,4.53
2022-09-07T12:47:37.000Z,4.00
2022-09-07T12:49:00.091Z,4.25
2022-09-07T12:50:21.521Z,4.00
2022-09-07T12:53:24.286Z,4.43
2022-09-07T12:54:35.067Z,4.32
2022-09-07T12:56:22.758Z,4.55
2022-09-07T12:57:55.659Z,4.63
2022-09-07T12:59:04.047Z,4.55
2022-09-07T13:00:07.146Z,4.70
2022-09-07T13:01:51.552Z,4.53
2022-09-07T13:05:09.401Z,4.50
2022-09-07T13:08:14.442Z,4.60
2022-09-07T13:09:30.232Z,5.43
2022-09-07T13:10:33.189Z,5.30
2022-09-07T13:11:41.162Z,5.78
2022-09-07T13:12:57.355Z,6.07
2022-09-07T13:14:06.248Z,5.90
2022-09-07T13:15:44.654Z,6.50
2022-09-07T13:18:26.983Z,6.60
2022-09-07T13:19:47.040Z,6.97
2022-09-07T13:21:08.637Z,7.07
2022-09-07T13:22:36.790Z,6.75
2022-09-07T13:23:46.631Z,7.05
2022-09-07T13:24:52.654Z,6.43
2022-09-07T13:25:56.170Z,5.50
2022-09-07T13:27:11.499Z,4.87
2022-09-07T13:28:18.956Z,4.65
2022-09-07T13:29:26.678Z,3.88
2022-09-07T13:30:47.108Z,4.32
2022-09-07T13:31:58.896Z,3.67
2022-09-07T13:33:26.023Z,3.42
2022-09-07T13:34:33.704Z,3.30
2022-09-07T13:35:35.737Z,3.42
2022-09-07T13:36:48.879Z,3.80
2022-09-07T13:37:58.849Z,3.80
2022-09-07T13:39:00.720Z,3.77
2022-09-07T13:40:04.340Z,2.40
2022-09-07T13:41:12.383Z,2.60
2022-09-07T13:42:32.649Z,2.40
2022-09-07T13:43:35.853Z,2.92
2022-09-07T13:44:39.184Z,2.92
2022-09-07T13:45:53.263Z,3.00
2022-09-07T13:47:17.687Z,2.65
2022-09-07T13:48:24.251Z,2.95
2022-09-07T13:49:35.976Z,3.03
2022-09-07T13:50:57.170Z,2.77
2022-09-07T13:52:14.863Z,2.58
2022-09-07T13:54:01.442Z,2.60
2022-09-07T13:55:06.172Z,2.80
2022-09-07T13:56:18.851Z,3.05
2022-09-07T13:57:28.479Z,2.72
2022-09-07T13:58:41.875Z,2.50
2022-09-07T13:59:51.465Z,2.67
2022-09-07T14:00:55.487Z,2.60
2022-09-07T14:01:58.391Z,2.80
2022-09-07T14:03:05.937Z,2.70
2022-09-07T14:04:24.860Z,2.72
2022-09-07T14:05:26.605Z,2.20
2022-09-07T14:06:31.384Z,1.85
2022-09-07T14:07:33.043Z,1.70
2022-09-07T14:08:39.247Z,1.75
2022-09-07T14:09:41.935Z,1.60
2022-09-07T14:10:48.785Z,1.50
2022-09-07T14:11:54.086Z,1.90
2022-09-07T14:13:02.009Z,1.90
2022-09-07T14:14:08.269Z,2.07
2022-09-07T14:15:32.940Z,2.38
2022-09-07T14:16:35.805Z,2.40
2022-09-07T14:17:37.823Z,2.92
2022-09-07T14:18:40.475Z,4.20
2022-09-07T14:19:50.098Z,3.50
2022-09-07T14:20:53.556Z,3.85
2022-09-07T14:21:57.446Z,4.35
2022-09-07T14:22:59.480Z,3.70
2022-09-07T14:24:03.403Z,4.55
2022-09-07T14:25:07.254Z,3.90
2022-09-07T14:26:20.911Z,4.07
2022-09-07T14:27:31.128Z,4.30
2022-09-07T14:28:37.506Z,4.30
2022-09-07T14:29:39.798Z,3.53
2022-09-07T14:30:41.926Z,3.85
2022-09-07T14:31:44.029Z,4.32
2022-09-07T14:32:48.028Z,4.07
2022-09-07T14:33:54.088Z,3.60
2022-09-07T14:34:55.935Z,3.90
2022-09-07T14:35:59.023Z,4.27
2022-09-07T14:37:05.679Z,3.65
2022-09-07T14:39:04.120Z,3.92
2022-09-07T14:39:42.586Z,3.90
2022-09-07T14:40:45.206Z,4.03
2022-09-07T14:41:47.165Z,3.83
2022-09-07T14:42:54.242Z,3.90
2022-09-07T14:43:58.022Z,4.30
2022-09-07T14:45:19.493Z,4.75
2022-09-07T14:46:34.199Z,4.60
2022-09-07T14:47:36.290Z,4.40
2022-09-07T14:48:39.872Z,4.53
2022-09-07T14:49:43.563Z,4.00
2022-09-07T14:50:57.220Z,4.38
2022-09-07T14:52:19.533Z,4.50
2022-09-07T14:53:36.603Z,4.18
2022-09-07T14:54:38.428Z,4.40
2022-09-07T14:55:42.386Z,4.20
2022-09-07T14:57:02.536Z,3.80
2022-09-07T14:58:16.201Z,4.38
2022-09-07T14:59:43.705Z,4.30
2022-09-07T15:00:47.512Z,4.10
2022-09-07T15:02:18.267Z,4.15
2022-09-07T15:03:32.230Z,3.70
2022-09-07T15:04:34.502Z,3.90
2022-09-07T15:05:47.250Z,3.63
2022-09-07T15:07:04.567Z,3.70
2022-09-07T15:08:06.731Z,3.42
2022-09-07T15:09:30.286Z,4.10
2022-09-07T15:10:36.876Z,3.50
2022-09-07T15:11:38.932Z,3.30
2022-09-07T15:12:44.221Z,3.83
2022-09-07T15:13:57.130Z,3.90
2022-09-07T15:14:58.878Z,3.75
2022-09-07T15:16:03.634Z,3.63
2022-09-07T15:18:55.632Z,3.72
2022-09-07T15:19:57.861Z,3.38
2022-09-07T15:20:59.839Z,3.65
2022-09-07T15:22:05.055Z,3.55
2022-09-07T15:23:15.393Z,3.73
2022-09-07T15:24:17.199Z,3.40
2022-09-07T15:25:18.933Z,3.80
2022-09-07T15:27:43.260Z,3.80
2022-09-07T15:30:07.163Z,3.60
2022-09-07T15:32:35.193Z,3.22
2022-09-07T15:33:36.887Z,3.53
2022-09-07T15:34:38.596Z,3.50
2022-09-07T15:35:40.327Z,3.50
2022-09-07T15:36:46.121Z,3.30
2022-09-07T15:38:05.318Z,3.25
2022-09-07T15:39:14.585Z,3.40
2022-09-07T15:40:20.532Z,3.40
2022-09-07T15:41:24.555Z,3.33
2022-09-07T15:43:48.132Z,3.38
2022-09-07T15:44:50.265Z,3.22
2022-09-07T15:45:52.186Z,3.30
2022-09-07T15:48:19.606Z,3.33
2022-09-07T15:49:21.753Z,3.17
2022-09-07T15:50:23.662Z,3.10
2022-09-07T15:52:47.170Z,3.65
2022-09-07T15:55:11.676Z,3.20
2022-09-07T15:56:13.854Z,3.17
2022-09-07T15:58:37.387Z,3.03
2022-09-07T15:59:39.093Z,3.30
2022-09-07T16:00:40.935Z,3.35
2022-09-07T16:01:58.772Z,3.42
2022-09-07T16:03:04.409Z,3.38
2022-09-07T16:04:07.166Z,3.40
2022-09-07T16:05:10.106Z,3.15
2022-09-07T16:06:13.778Z,3.45
2022-09-07T16:07:15.730Z,3.40
2022-09-07T16:08:25.126Z,3.23